Kezdőlap
METAR-TAF:

METAR-TAF

Repülőterek :

Collin County Regional Airport at McKinney

McKinney, Texas, Amerikai Egyesült Államok

földrajzi szélesség: 33-10-40N, földrajzi hosszúság: 096-35-25W, magasság: 178 m

Jelenlegi meteorológiai megfigyelések

A jelentés 10 perccel ezelõtt készült, 01:53 UTC
Délkeleti szél 6 kt
Hőmérséklet 29°C
Páratartalom 58%
Légköri nyomás 1018 hPa
Látótávolság: 16.1 km
Derült ég

METAR: KTKI 220153Z 13006KT 10SM CLR 29/20 A3005 RMK AO2 SLP169 T02940200

Idő: 21:03 (02:03 UTC)


TAF: hiányzik

Meteorológiai megfigyelések és előrejelzések több, mint 4000 repülőtéren (METAR és TAF jelentéseket).

A térképen piros és sárga pontok jelzik az elérhető meteorológiai állomásokat.

Mozgassa az egeret a pont fölött, hogy megjelenjen az állomás neve.

Azután kattintson az időjárási megfigyelések és előrejelzések megtekintéséhez.

A térkép megváltoztatása: kattintson a fekete keresztel jelölt zöld gombra ráközelítéshez, a vonallal jelölt zöld gombra távolításhoz, vagy a zöld nyilakra a szomszédos térképek eléréséhez.


METAR-TAF: